createdAt,value
2018-03-18T00:01:58.051Z,0.10
2018-03-18T00:04:32.438Z,0.00
2018-03-18T00:07:07.817Z,0.00
2018-03-18T00:09:42.360Z,0.00
2018-03-18T00:12:17.030Z,0.00
2018-03-18T00:14:51.671Z,0.00
2018-03-18T00:17:26.933Z,-0.10
2018-03-18T00:20:02.009Z,-0.10
2018-03-18T00:22:36.739Z,-0.10
2018-03-18T00:25:11.342Z,0.00
2018-03-18T00:27:45.909Z,0.00
2018-03-18T00:30:20.490Z,0.10
2018-03-18T00:32:55.002Z,0.00
2018-03-18T00:35:29.452Z,0.00
2018-03-18T00:38:05.579Z,0.00
2018-03-18T00:40:41.095Z,0.00
2018-03-18T00:43:15.817Z,-0.10
2018-03-18T00:45:44.970Z,-0.10
2018-03-18T00:48:19.581Z,-0.10
2018-03-18T00:50:54.178Z,-0.10
2018-03-18T00:53:28.750Z,-0.10
2018-03-18T00:55:58.276Z,-0.20
2018-03-18T00:58:32.808Z,-0.10
2018-03-18T01:01:08.097Z,-0.20
2018-03-18T01:03:42.805Z,-0.20
2018-03-18T01:06:11.832Z,-0.10
2018-03-18T01:08:46.576Z,-0.10
2018-03-18T01:11:21.245Z,-0.10
2018-03-18T01:13:55.991Z,-0.10
2018-03-18T01:16:30.662Z,0.00
2018-03-18T01:19:05.245Z,0.00
2018-03-18T01:21:39.884Z,-0.10
2018-03-18T01:24:14.393Z,-0.10
2018-03-18T01:26:48.861Z,-0.20
2018-03-18T01:29:24.167Z,-0.20
2018-03-18T01:31:59.490Z,-0.10
2018-03-18T01:34:34.138Z,-0.10
2018-03-18T01:37:09.588Z,-0.10
2018-03-18T01:39:45.108Z,0.00
2018-03-18T01:42:19.698Z,-0.10
2018-03-18T01:44:54.366Z,-0.10
2018-03-18T01:47:28.966Z,-0.10
2018-03-18T01:50:03.735Z,-0.10
2018-03-18T01:52:38.709Z,-0.20
2018-03-18T01:55:13.469Z,-0.10
2018-03-18T01:57:48.009Z,-0.30
2018-03-18T02:00:16.892Z,-0.30
2018-03-18T02:02:54.731Z,-0.30
2018-03-18T02:05:29.249Z,-0.20
2018-03-18T02:08:04.063Z,-0.20
2018-03-18T02:10:38.643Z,-0.20
2018-03-18T02:13:13.212Z,-0.20
2018-03-18T02:15:47.699Z,-0.20
2018-03-18T02:18:22.250Z,-0.10
2018-03-18T02:20:56.855Z,-0.10
2018-03-18T02:23:31.675Z,-0.20
2018-03-18T02:26:06.104Z,-0.10
2018-03-18T02:28:40.810Z,-0.10
2018-03-18T02:31:15.484Z,-0.20
2018-03-18T02:33:50.993Z,-0.20
2018-03-18T02:36:26.430Z,-0.10
2018-03-18T02:39:01.781Z,-0.20
2018-03-18T02:41:36.694Z,-0.20
2018-03-18T02:44:11.321Z,-0.20
2018-03-18T02:46:47.084Z,-0.20
2018-03-18T02:49:21.507Z,-0.20
2018-03-18T02:51:56.090Z,-0.20
2018-03-18T02:54:31.575Z,-0.30
2018-03-18T02:57:06.233Z,-0.30
2018-03-18T02:59:40.875Z,-0.20
2018-03-18T03:02:15.566Z,-0.20
2018-03-18T03:04:50.088Z,-0.30
2018-03-18T03:07:24.817Z,-0.20
2018-03-18T03:09:59.308Z,-0.20
2018-03-18T03:12:34.554Z,-0.10
2018-03-18T03:15:09.822Z,-0.20
2018-03-18T03:17:44.502Z,-0.20
2018-03-18T03:20:19.997Z,-0.10
2018-03-18T03:22:54.499Z,-0.10
2018-03-18T03:25:29.020Z,-0.20
2018-03-18T03:28:03.553Z,-0.20
2018-03-18T03:30:38.387Z,-0.30
2018-03-18T03:33:13.915Z,-0.30
2018-03-18T03:35:49.396Z,-0.20
2018-03-18T03:38:24.206Z,-0.20
2018-03-18T03:40:58.964Z,-0.20
2018-03-18T03:43:33.603Z,-0.20
2018-03-18T03:46:08.720Z,-0.30
2018-03-18T03:48:43.459Z,-0.30
2018-03-18T03:51:18.128Z,-0.20
2018-03-18T03:53:52.675Z,-0.30
2018-03-18T03:56:27.300Z,-0.20
2018-03-18T03:59:02.600Z,-0.10
2018-03-18T04:01:37.236Z,-0.20
2018-03-18T04:04:12.382Z,-0.10
2018-03-18T04:06:47.216Z,-0.10
2018-03-18T04:09:21.683Z,-0.20
2018-03-18T04:11:56.401Z,-0.30
2018-03-18T04:14:31.970Z,-0.30
2018-03-18T04:17:06.564Z,-0.40
2018-03-18T04:19:41.151Z,-0.40
2018-03-18T04:22:15.746Z,-0.30
2018-03-18T04:24:50.301Z,-0.30
2018-03-18T04:27:24.824Z,-0.40
2018-03-18T04:29:59.335Z,-0.50
2018-03-18T04:32:34.787Z,-0.50
2018-03-18T04:35:10.260Z,-0.50
2018-03-18T04:37:44.583Z,-0.60
2018-03-18T04:40:19.294Z,-0.60
2018-03-18T04:42:55.658Z,-0.40
2018-03-18T04:45:30.658Z,-0.40
2018-03-18T04:48:05.921Z,-0.40
2018-03-18T04:50:40.583Z,-0.40
2018-03-18T04:53:15.290Z,-0.40
2018-03-18T04:55:49.903Z,-0.40
2018-03-18T04:58:24.786Z,-0.30
2018-03-18T05:00:59.387Z,-0.30
2018-03-18T05:03:34.053Z,-0.30
2018-03-18T05:06:08.585Z,-0.30
2018-03-18T05:08:42.773Z,-0.20
2018-03-18T05:11:17.167Z,-0.30
2018-03-18T05:13:51.762Z,-0.30
2018-03-18T05:16:26.366Z,-0.30
2018-03-18T05:19:01.046Z,-0.40
2018-03-18T05:21:36.786Z,-0.30
2018-03-18T05:24:11.362Z,-0.30
2018-03-18T05:26:46.687Z,-0.30
2018-03-18T05:29:21.901Z,-0.30
2018-03-18T05:31:56.311Z,-0.30
2018-03-18T05:34:30.900Z,-0.30
2018-03-18T05:37:05.467Z,-0.30
2018-03-18T05:39:39.935Z,-0.30
2018-03-18T05:42:14.571Z,-0.20
2018-03-18T05:44:49.263Z,-0.30
2018-03-18T05:47:23.898Z,-0.30
2018-03-18T05:49:58.438Z,-0.30
2018-03-18T05:52:33.779Z,-0.30
2018-03-18T05:55:08.343Z,-0.30
2018-03-18T05:57:43.042Z,-0.30
2018-03-18T06:00:17.520Z,-0.40
2018-03-18T06:02:52.200Z,-0.30
2018-03-18T06:05:26.890Z,-0.20
2018-03-18T06:08:01.370Z,-0.30
2018-03-18T06:10:36.013Z,-0.30
2018-03-18T06:13:10.679Z,-0.30
2018-03-18T06:15:45.346Z,-0.30
2018-03-18T06:18:20.628Z,-0.30
2018-03-18T06:20:55.166Z,-0.40
2018-03-18T06:23:30.503Z,-0.30
2018-03-18T06:26:05.127Z,-0.30
2018-03-18T06:28:39.869Z,-0.30
2018-03-18T06:31:14.619Z,-0.30
2018-03-18T06:33:48.998Z,-0.30
2018-03-18T06:36:24.432Z,-0.10
2018-03-18T06:38:59.205Z,-0.20
2018-03-18T06:41:34.613Z,-0.20
2018-03-18T06:44:09.213Z,-0.20
2018-03-18T06:46:43.741Z,-0.20
2018-03-18T06:49:18.339Z,-0.20
2018-03-18T06:51:52.906Z,-0.20
2018-03-18T06:54:27.524Z,-0.20
2018-03-18T06:57:03.146Z,-0.10
2018-03-18T06:59:38.541Z,-0.10
2018-03-18T07:02:14.478Z,-0.20
2018-03-18T07:04:49.092Z,-0.20
2018-03-18T07:07:24.450Z,-0.30
2018-03-18T07:09:59.958Z,-0.30
2018-03-18T07:12:34.531Z,-0.20
2018-03-18T07:15:09.146Z,-0.20
2018-03-18T07:17:43.655Z,-0.20
2018-03-18T07:20:18.294Z,-0.20
2018-03-18T07:22:52.828Z,-0.20
2018-03-18T07:25:27.488Z,-0.30
2018-03-18T07:28:02.430Z,-0.40
2018-03-18T07:30:37.184Z,-0.40
2018-03-18T07:33:11.815Z,-0.40
2018-03-18T07:35:47.294Z,-0.40
2018-03-18T07:38:21.828Z,-0.40
2018-03-18T07:40:56.409Z,-0.40
2018-03-18T07:43:31.747Z,-0.40
2018-03-18T07:46:06.523Z,-0.40
2018-03-18T07:48:41.216Z,-0.40
2018-03-18T07:51:15.879Z,-0.30
2018-03-18T07:53:50.471Z,-0.10
2018-03-18T07:56:25.115Z,-0.10
2018-03-18T07:59:00.595Z,-0.10
2018-03-18T08:01:35.396Z,-0.20
2018-03-18T08:04:09.752Z,-0.20
2018-03-18T08:06:45.937Z,-0.40
2018-03-18T08:09:20.743Z,-0.40
2018-03-18T08:11:55.302Z,-0.40
2018-03-18T08:14:30.701Z,-0.30
2018-03-18T08:17:05.235Z,-0.30
2018-03-18T08:19:40.577Z,-0.50
2018-03-18T08:22:15.126Z,-0.50
2018-03-18T08:24:49.743Z,-0.50
2018-03-18T08:27:24.776Z,-0.50
2018-03-18T08:29:59.999Z,-0.10
2018-03-18T08:32:35.394Z,-0.10
2018-03-18T08:35:10.035Z,-0.10
2018-03-18T08:37:44.848Z,-0.20
2018-03-18T08:40:19.696Z,-0.30
2018-03-18T08:42:54.954Z,-0.30
2018-03-18T08:45:29.821Z,-0.10
2018-03-18T08:48:04.521Z,-0.20
2018-03-18T08:50:39.922Z,-0.10
2018-03-18T08:53:14.726Z,-0.10
2018-03-18T08:55:49.417Z,-0.10
2018-03-18T08:58:23.971Z,-0.30
2018-03-18T09:00:58.580Z,-0.40
2018-03-18T09:03:33.126Z,-0.40
2018-03-18T09:06:07.796Z,-0.30
2018-03-18T09:08:42.390Z,-0.20
2018-03-18T09:11:18.017Z,-0.30
2018-03-18T09:13:52.776Z,-0.20
2018-03-18T09:16:27.496Z,-0.40
2018-03-18T09:19:03.017Z,-0.40
2018-03-18T09:21:37.963Z,-0.40
2018-03-18T09:24:12.542Z,-0.30
2018-03-18T09:26:47.272Z,-0.20
2018-03-18T09:29:22.798Z,-0.30
2018-03-18T09:31:57.069Z,-0.30
2018-03-18T09:34:31.797Z,-0.30
2018-03-18T09:37:06.701Z,-0.60
2018-03-18T09:39:41.338Z,-0.60
2018-03-18T09:42:15.949Z,-0.40
2018-03-18T09:44:50.463Z,-0.30
2018-03-18T09:47:25.001Z,-0.20
2018-03-18T09:49:59.619Z,-0.20
2018-03-18T09:52:34.227Z,0.00
2018-03-18T09:55:08.922Z,0.10
2018-03-18T09:57:43.999Z,0.30
2018-03-18T10:00:19.608Z,0.50
2018-03-18T10:02:54.390Z,0.40
2018-03-18T10:05:29.138Z,0.50
2018-03-18T10:08:03.461Z,0.60
2018-03-18T10:10:38.083Z,0.80
2018-03-18T10:13:12.708Z,1.00
2018-03-18T10:15:47.240Z,1.00
2018-03-18T10:18:22.571Z,1.30
2018-03-18T10:20:57.687Z,1.20
2018-03-18T10:23:32.409Z,1.30
2018-03-18T10:26:06.990Z,1.40
2018-03-18T10:28:41.520Z,1.40
2018-03-18T10:31:16.107Z,1.50
2018-03-18T10:33:50.939Z,1.40
2018-03-18T10:36:25.522Z,1.20
2018-03-18T10:39:03.123Z,1.00
2018-03-18T10:41:38.545Z,1.00
2018-03-18T10:44:13.255Z,0.90
2018-03-18T10:46:48.951Z,0.90
2018-03-18T10:49:24.159Z,1.00
2018-03-18T10:51:58.731Z,1.00
2018-03-18T10:54:34.253Z,1.20
2018-03-18T10:57:09.624Z,1.20
2018-03-18T10:59:44.255Z,1.20
2018-03-18T11:02:22.508Z,1.20
2018-03-18T11:04:57.402Z,1.30
2018-03-18T11:07:32.098Z,1.60
2018-03-18T11:10:06.869Z,1.60
2018-03-18T11:12:42.945Z,1.80
2018-03-18T11:15:18.277Z,2.00
2018-03-18T11:17:53.606Z,2.10
2018-03-18T11:20:28.737Z,2.10
2018-03-18T11:23:03.596Z,2.20
2018-03-18T11:25:38.955Z,2.30
2018-03-18T11:28:13.551Z,2.30
2018-03-18T11:30:48.867Z,2.30
2018-03-18T11:33:23.555Z,2.40
2018-03-18T11:35:58.162Z,2.30
2018-03-18T11:38:33.811Z,2.40
2018-03-18T11:41:08.557Z,2.40
2018-03-18T11:43:43.287Z,2.50
2018-03-18T11:46:17.876Z,2.40
2018-03-18T11:48:53.195Z,2.50
2018-03-18T11:51:27.918Z,2.80
2018-03-18T11:54:03.098Z,2.70
2018-03-18T11:56:32.066Z,2.80
2018-03-18T11:59:01.163Z,3.00
2018-03-18T12:01:30.295Z,3.00
2018-03-18T12:03:59.410Z,2.90
2018-03-18T12:06:28.599Z,3.00
2018-03-18T12:08:59.968Z,3.20
2018-03-18T12:11:30.759Z,3.40
2018-03-18T12:14:00.834Z,3.40
2018-03-18T12:16:29.161Z,3.40
2018-03-18T12:18:58.104Z,3.10
2018-03-18T12:21:27.135Z,3.00
2018-03-18T12:23:55.986Z,3.10
2018-03-18T12:26:25.104Z,3.10
2018-03-18T12:28:55.813Z,3.10
2018-03-18T12:31:31.304Z,3.40
2018-03-18T12:34:06.716Z,3.30
2018-03-18T12:36:41.447Z,3.30
2018-03-18T12:39:16.016Z,3.30
2018-03-18T12:41:50.595Z,3.40
2018-03-18T12:44:24.790Z,3.40
2018-03-18T12:46:59.355Z,3.40
2018-03-18T12:49:34.012Z,3.20
2018-03-18T12:52:08.654Z,3.20
2018-03-18T12:54:39.780Z,3.10
2018-03-18T12:57:14.477Z,3.10
2018-03-18T12:59:48.993Z,3.30
2018-03-18T13:02:23.760Z,3.70
2018-03-18T13:04:59.220Z,3.90
2018-03-18T13:07:33.920Z,3.80
2018-03-18T13:10:08.635Z,3.90
2018-03-18T13:12:43.321Z,3.90
2018-03-18T13:15:17.914Z,4.00
2018-03-18T13:17:52.673Z,4.10
2018-03-18T13:20:27.487Z,4.20
2018-03-18T13:23:03.778Z,4.10
2018-03-18T13:25:39.003Z,4.20
2018-03-18T13:28:16.274Z,4.10
2018-03-18T13:30:52.571Z,3.90
2018-03-18T13:33:27.342Z,3.90
2018-03-18T13:36:02.117Z,3.80
2018-03-18T13:38:36.912Z,3.90
2018-03-18T13:41:10.951Z,3.90
2018-03-18T13:43:45.791Z,4.00
2018-03-18T13:46:21.382Z,3.90
2018-03-18T13:48:51.197Z,4.00
2018-03-18T13:51:26.608Z,4.20
2018-03-18T13:54:02.248Z,4.30
2018-03-18T13:56:36.893Z,4.30
2018-03-18T13:59:11.448Z,4.60
2018-03-18T14:01:46.113Z,4.70
2018-03-18T14:04:21.111Z,4.60
2018-03-18T14:06:55.868Z,4.50
2018-03-18T14:09:31.267Z,4.50
2018-03-18T14:12:06.056Z,4.50
2018-03-18T14:14:40.742Z,4.60
2018-03-18T14:17:15.367Z,4.80
2018-03-18T14:19:50.476Z,4.90
2018-03-18T14:22:25.122Z,4.90
2018-03-18T14:24:59.744Z,5.20
2018-03-18T14:27:34.423Z,5.30
2018-03-18T14:30:09.884Z,5.10
2018-03-18T14:32:44.621Z,5.10
2018-03-18T14:35:21.298Z,4.90
2018-03-18T14:37:55.758Z,4.90
2018-03-18T14:40:30.444Z,4.80
2018-03-18T14:43:05.972Z,4.70
2018-03-18T14:45:40.621Z,4.60
2018-03-18T14:48:15.378Z,4.70
2018-03-18T14:50:50.958Z,4.90
2018-03-18T14:53:26.258Z,4.90
2018-03-18T14:56:00.844Z,4.90
2018-03-18T14:58:35.936Z,4.90
2018-03-18T15:01:10.429Z,4.80
2018-03-18T15:03:45.008Z,4.80
2018-03-18T15:06:19.720Z,4.90
2018-03-18T15:08:55.075Z,4.40
2018-03-18T15:11:29.536Z,4.40
2018-03-18T15:14:04.547Z,4.30
2018-03-18T15:16:39.947Z,4.10
2018-03-18T15:19:14.846Z,4.10
2018-03-18T15:21:50.984Z,4.40
2018-03-18T15:24:25.694Z,4.30
2018-03-18T15:27:01.359Z,4.20
2018-03-18T15:29:36.069Z,4.20
2018-03-18T15:32:10.515Z,4.20
2018-03-18T15:34:45.416Z,4.20
2018-03-18T15:37:20.696Z,3.90
2018-03-18T15:39:55.231Z,3.90
2018-03-18T15:42:29.922Z,4.00
2018-03-18T15:45:03.920Z,4.00
2018-03-18T15:47:38.765Z,4.00
2018-03-18T15:50:13.409Z,3.90
2018-03-18T15:52:48.274Z,3.90
2018-03-18T15:55:23.006Z,3.80
2018-03-18T15:57:58.048Z,3.80
2018-03-18T16:00:32.690Z,3.70
2018-03-18T16:03:07.520Z,3.80
2018-03-18T16:05:42.400Z,3.80
2018-03-18T16:08:17.148Z,3.70
2018-03-18T16:10:51.792Z,3.70
2018-03-18T16:13:26.466Z,3.70
2018-03-18T16:16:01.060Z,3.70
2018-03-18T16:18:35.575Z,3.60
2018-03-18T16:21:10.221Z,3.50
2018-03-18T16:23:44.790Z,3.50
2018-03-18T16:26:19.351Z,3.40
2018-03-18T16:28:53.576Z,3.30
2018-03-18T16:31:28.303Z,3.40
2018-03-18T16:34:03.055Z,3.30
2018-03-18T16:36:37.776Z,3.30
2018-03-18T16:39:13.562Z,3.20
2018-03-18T16:41:48.306Z,3.20
2018-03-18T16:44:23.039Z,3.20
2018-03-18T16:46:57.792Z,3.20
2018-03-18T16:49:32.350Z,3.20
2018-03-18T16:52:07.104Z,3.30
2018-03-18T16:54:41.787Z,3.30
2018-03-18T16:57:16.351Z,3.30
2018-03-18T16:59:50.988Z,3.20
2018-03-18T17:02:25.646Z,3.20
2018-03-18T17:05:00.349Z,3.20
2018-03-18T17:07:34.838Z,3.20
2018-03-18T17:10:10.314Z,3.10
2018-03-18T17:12:45.832Z,3.10
2018-03-18T17:15:20.392Z,3.10
2018-03-18T17:17:55.376Z,3.10
2018-03-18T17:20:30.418Z,3.10
2018-03-18T17:23:04.628Z,2.90
2018-03-18T17:25:39.537Z,2.90
2018-03-18T17:28:14.209Z,2.90
2018-03-18T17:30:48.751Z,2.80
2018-03-18T17:33:23.530Z,2.70
2018-03-18T17:35:58.896Z,2.50
2018-03-18T17:38:33.612Z,2.50
2018-03-18T17:41:08.294Z,2.50
2018-03-18T17:43:42.996Z,2.50
2018-03-18T17:46:28.994Z,2.40
2018-03-18T17:49:14.900Z,2.30
2018-03-18T17:52:00.919Z,2.30
2018-03-18T17:54:46.936Z,2.30
2018-03-18T17:57:22.514Z,2.10
2018-03-18T17:59:57.235Z,2.10
2018-03-18T18:02:31.942Z,2.10
2018-03-18T18:05:06.639Z,2.00
2018-03-18T18:07:41.467Z,1.90
2018-03-18T18:10:16.889Z,1.90
2018-03-18T18:12:51.561Z,1.90
2018-03-18T18:15:26.288Z,1.90
2018-03-18T18:18:01.752Z,1.80
2018-03-18T18:20:36.261Z,1.80
2018-03-18T18:23:10.829Z,1.80
2018-03-18T18:25:45.641Z,1.80
2018-03-18T18:28:20.342Z,1.80
2018-03-18T18:30:56.041Z,1.80
2018-03-18T18:33:31.297Z,1.80
2018-03-18T18:36:06.086Z,1.80
2018-03-18T18:38:40.735Z,1.80
2018-03-18T18:41:17.097Z,1.70
2018-03-18T18:43:51.863Z,1.70
2018-03-18T18:46:26.403Z,1.70
2018-03-18T18:49:02.162Z,1.60
2018-03-18T18:51:37.525Z,1.50
2018-03-18T18:54:12.438Z,1.50
2018-03-18T18:56:47.146Z,1.50
2018-03-18T18:59:21.714Z,1.50
2018-03-18T19:01:56.346Z,1.50
2018-03-18T19:04:30.882Z,1.60
2018-03-18T19:07:05.673Z,1.60
2018-03-18T19:09:41.253Z,1.50
2018-03-18T19:12:15.827Z,1.50
2018-03-18T19:14:50.339Z,1.40
2018-03-18T19:17:25.013Z,1.40
2018-03-18T19:20:00.324Z,1.50
2018-03-18T19:22:35.808Z,1.40
2018-03-18T19:25:10.534Z,1.40
2018-03-18T19:27:45.097Z,1.50
2018-03-18T19:30:19.592Z,1.40
2018-03-18T19:32:54.273Z,1.40
2018-03-18T19:35:29.023Z,1.40
2018-03-18T19:38:04.129Z,1.30
2018-03-18T19:40:39.675Z,1.30
2018-03-18T19:43:14.487Z,1.30
2018-03-18T19:45:49.059Z,1.30
2018-03-18T19:48:23.804Z,1.30
2018-03-18T19:50:58.783Z,1.20
2018-03-18T19:53:33.423Z,1.20
2018-03-18T19:56:07.995Z,1.20
2018-03-18T19:58:42.722Z,1.10
2018-03-18T20:01:17.991Z,1.00
2018-03-18T20:03:52.548Z,1.00
2018-03-18T20:06:27.054Z,1.00
2018-03-18T20:09:01.620Z,1.00
2018-03-18T20:11:36.147Z,1.10
2018-03-18T20:14:10.822Z,1.10
2018-03-18T20:16:46.871Z,1.20
2018-03-18T20:19:21.723Z,1.10
2018-03-18T20:21:56.449Z,1.10
2018-03-18T20:24:31.172Z,1.10
2018-03-18T20:27:05.594Z,1.10
2018-03-18T20:29:41.000Z,1.00
2018-03-18T20:32:15.756Z,1.00
2018-03-18T20:34:50.521Z,1.00
2018-03-18T20:37:25.263Z,1.10
2018-03-18T20:39:59.857Z,1.00
2018-03-18T20:42:34.418Z,1.00
2018-03-18T20:45:09.068Z,1.00
2018-03-18T20:47:43.831Z,1.00
2018-03-18T20:50:18.565Z,1.00
2018-03-18T20:52:53.586Z,1.00
2018-03-18T20:55:27.947Z,1.00
2018-03-18T20:58:02.734Z,0.90
2018-03-18T21:00:38.215Z,0.90
2018-03-18T21:03:13.024Z,0.80
2018-03-18T21:05:48.361Z,0.80
2018-03-18T21:08:23.322Z,0.80
2018-03-18T21:10:57.953Z,0.80
2018-03-18T21:13:32.553Z,0.80
2018-03-18T21:16:08.002Z,0.70
2018-03-18T21:18:42.767Z,0.70
2018-03-18T21:21:17.680Z,0.80
2018-03-18T21:23:52.322Z,0.80
2018-03-18T21:26:26.929Z,0.80
2018-03-18T21:29:01.513Z,0.70
2018-03-18T21:31:36.130Z,0.70
2018-03-18T21:34:12.124Z,0.80
2018-03-18T21:36:46.702Z,0.70
2018-03-18T21:39:21.544Z,0.70
2018-03-18T21:41:56.406Z,0.70
2018-03-18T21:44:31.220Z,0.70
2018-03-18T21:47:05.982Z,0.80
2018-03-18T21:49:40.749Z,0.80
2018-03-18T21:52:15.292Z,0.80
2018-03-18T21:54:50.015Z,0.80
2018-03-18T21:57:24.628Z,0.80
2018-03-18T21:59:59.398Z,0.80
2018-03-18T22:02:34.176Z,0.80
2018-03-18T22:05:08.872Z,0.80
2018-03-18T22:07:44.257Z,0.80
2018-03-18T22:10:19.076Z,0.70
2018-03-18T22:12:48.306Z,0.70
2018-03-18T22:15:22.877Z,0.70
2018-03-18T22:17:58.203Z,0.70
2018-03-18T22:20:32.837Z,0.70
2018-03-18T22:23:07.506Z,0.80
2018-03-18T22:25:42.320Z,0.70
2018-03-18T22:28:17.102Z,0.70
2018-03-18T22:30:51.690Z,0.60
2018-03-18T22:33:26.500Z,0.60
2018-03-18T22:36:02.001Z,0.50
2018-03-18T22:38:36.619Z,0.50
2018-03-18T22:41:12.406Z,0.50
2018-03-18T22:43:47.906Z,0.50
2018-03-18T22:46:23.354Z,0.40
2018-03-18T22:48:58.025Z,0.40
2018-03-18T22:51:32.709Z,0.40
2018-03-18T22:54:08.107Z,0.40
2018-03-18T22:56:42.882Z,0.40
2018-03-18T22:59:18.324Z,0.30
2018-03-18T23:01:53.149Z,0.30
2018-03-18T23:04:28.845Z,0.30
2018-03-18T23:07:03.580Z,0.30
2018-03-18T23:09:38.311Z,0.30
2018-03-18T23:12:13.336Z,0.30
2018-03-18T23:14:47.895Z,0.20
2018-03-18T23:17:22.571Z,0.20
2018-03-18T23:19:57.172Z,0.20
2018-03-18T23:22:31.776Z,0.20
2018-03-18T23:25:06.251Z,0.20
2018-03-18T23:27:41.130Z,0.20
2018-03-18T23:30:15.829Z,0.20
2018-03-18T23:32:50.368Z,0.10
2018-03-18T23:35:25.057Z,0.10
2018-03-18T23:37:59.448Z,0.10
2018-03-18T23:40:33.948Z,0.10
2018-03-18T23:43:08.986Z,0.10
2018-03-18T23:45:43.706Z,0.10
2018-03-18T23:48:19.172Z,0.10
2018-03-18T23:50:53.888Z,0.10
2018-03-18T23:53:28.547Z,0.00
2018-03-18T23:56:03.290Z,0.00
2018-03-18T23:58:37.910Z,0.00
